首页
METAR-TAF:

METAR-TAF

机场 :

土伦, 法国

纬度: 43-06N, 经度: 006-09E, 海拔: 3米

当前天气观测

该预报发布于15分钟前的23:00 UTC
风速3节,风向多变
温度 10°C
湿度 57%
气压 1027 hPa
能见度10公里或以上
1500米以下无云,无积雨云

METAR: LFTH 072300Z AUTO VRB03KT CAVOK 10/02 Q1027

时间: 01:15 (23:15 UTC)

预报

该预报发布于9小时和15分钟前的14:00 UTC
预报有效从07日的 15点(UTC)到 08日的 15点(UTC)
风速10节,风向东转东南
能见度10公里或以上
1500米以下无云,无积雨云
短暂存在
从 07日的 15点(UTC)到 07日的 18点(UTC)
风速10节,风向东转东南,有时为20节阵风
成为
从 07日的 18点(UTC)到 07日的 20点(UTC)
风速3节,风向多变
成为
从 07日的 20点(UTC)到 07日的 22点(UTC)
风速5节,风向
成为
从 08日的 06点(UTC)到 08日的 08点(UTC)
风速3节,风向多变
成为
从 08日的 09点(UTC)到 08日的 11点(UTC)
风速10节,风向东转东南
短暂存在
从 08日的 11点(UTC)到 08日的 13点(UTC)
风速10节,风向东转东南,有时为20节阵风

TAF: LFTH 071400Z 0715/0815 11010KT CAVOK TEMPO 0715/0718 11010G20KT BECMG 0718/0720 VRB03KT BECMG 0720/0722 36005KT BECMG 0806/0808 VRB03KT BECMG 0809/0811 11010KT TEMPO 0811/0813 11010G20KT

超过4000个机场的气象观测和天气预报(METAR&TAF报告)。

可查询的气象台以黄色和红色小点在地图上表示。

将鼠标移到小点上方,可查看气象台名称。

然后点击查看天气观测和预报。

如需切换地图:点击带黑十字的绿色按钮放大地图;点击带横线的绿色按钮缩小地图;或者点击绿色箭头查看邻近地区的地图。


METAR-TAF: